Time;durP1;ratioP1;P1;durP2;ratioP2;P2;SDS_P1;SDS_P2;PMS_P1;PMS_P2;Temp;Humidity;BMP_temperature;BMP_pressure;BME280_temperature;BME280_humidity;BME280_pressure;Samples;Min_cycle;Max_cycle;Signal;HPM_P1;HPM_P2
2023/03/28 00:00:46;;;;;;;;;;;7.30;50.60;;;;;;5029971;28;19924;-59
2023/03/28 00:03:13;;;;;;;;;;;7.20;50.80;;;;;;5025397;28;19916;-59
2023/03/28 00:05:39;;;;;;;;;;;7.20;51.10;;;;;;5024287;28;19956;-59
2023/03/28 00:08:05;;;;;;;;;;;7.20;51.40;;;;;;5030703;28;20007;-58
2023/03/28 00:10:31;;;;;;;;;;;7.20;51.50;;;;;;5027021;28;20071;-59
2023/03/28 00:12:56;;;;;;;;;;;7.20;51.50;;;;;;5030787;28;19917;-59
2023/03/28 00:15:22;;;;;;;;;;;7.20;51.50;;;;;;5030489;28;19921;-59
2023/03/28 00:17:48;;;;;;;;;;;7.20;51.50;;;;;;5031335;28;19913;-59
2023/03/28 00:20:14;;;;;;;;;;;7.20;51.60;;;;;;5030932;28;19920;-59
2023/03/28 00:22:40;;;;;;;;;;;7.20;51.70;;;;;;5030287;28;19920;-59
2023/03/28 00:25:06;;;;;;;;;;;7.20;51.70;;;;;;5029321;28;19913;-59
2023/03/28 00:27:32;;;;;;;;;;;7.10;51.70;;;;;;5026924;28;19924;-59
2023/03/28 00:29:58;;;;;;;;;;;7.20;51.60;;;;;;5023987;28;20325;-59
2023/03/28 00:32:24;;;;;;;;;;;7.10;51.50;;;;;;5029963;28;19979;-59
2023/03/28 00:34:49;;;;;;;;;;;7.00;51.60;;;;;;5032051;28;20004;-59
2023/03/28 00:37:16;;;;;;;;;;;7.00;51.70;;;;;;5030188;28;20016;-59
2023/03/28 00:39:42;;;;;;;;;;;7.00;51.80;;;;;;5024960;28;19924;-59
2023/03/28 00:42:12;;;;;;;;;;;7.00;51.90;;;;;;5024318;28;19918;-59
2023/03/28 00:44:37;;;;;;;;;;;7.00;52.00;;;;;;5024057;28;19913;-59
2023/03/28 00:47:03;;;;;;;;;;;7.00;52.00;;;;;;5030968;28;19917;-59
2023/03/28 00:49:28;;;;;;;;;;;7.00;52.00;;;;;;5029874;28;19916;-59
2023/03/28 00:52:00;;;;;;;;;;;7.00;52.00;;;;;;5020851;28;20007;-59
2023/03/28 00:54:27;;;;;;;;;;;6.90;52.10;;;;;;5021271;28;19924;-59
2023/03/28 00:56:54;;;;;;;;;;;6.90;52.10;;;;;;5030486;28;20004;-59
2023/03/28 00:59:22;;;;;;;;;;;6.90;52.20;;;;;;5028975;28;20016;-59
2023/03/28 01:01:48;;;;;;;;;;;6.90;52.30;;;;;;5022833;28;19971;-62
2023/03/28 01:04:19;;;;;;;;;;;7.00;52.50;;;;;;5004743;28;19914;-60
2023/03/28 01:06:46;;;;;;;;;;;7.00;52.60;;;;;;5028689;28;19917;-59
2023/03/28 01:09:13;;;;;;;;;;;7.10;52.70;;;;;;5025305;28;20004;-59
2023/03/28 01:11:39;;;;;;;;;;;7.20;52.70;;;;;;5017126;28;19928;-60
2023/03/28 01:14:06;;;;;;;;;;;7.30;52.60;;;;;;5011557;28;19958;-60
2023/03/28 01:16:32;;;;;;;;;;;7.30;52.50;;;;;;5028272;28;19999;-59
2023/03/28 01:19:01;;;;;;;;;;;7.30;52.30;;;;;;5025542;28;19916;-59
2023/03/28 01:21:38;;;;;;;;;;;7.30;52.30;;;;;;5030675;28;20372;-59
2023/03/28 01:24:22;;;;;;;;;;;7.30;52.30;;;;;;5028972;28;19920;-59
2023/03/28 01:26:51;;;;;;;;;;;7.30;52.30;;;;;;5017176;28;19922;-59
2023/03/28 01:29:27;;;;;;;;;;;7.20;52.30;;;;;;5016758;28;19976;-59
2023/03/28 01:32:11;;;;;;;;;;;7.20;52.10;;;;;;5012079;28;19922;-59
2023/03/28 01:34:55;;;;;;;;;;;7.10;52.00;;;;;;5024531;28;20288;-59
2023/03/28 01:37:25;;;;;;;;;;;7.00;52.00;;;;;;5031888;28;19917;-60
2023/03/28 01:40:10;;;;;;;;;;;7.00;52.00;;;;;;5031926;28;19935;-59
2023/03/28 01:42:44;;;;;;;;;;;6.90;52.20;;;;;;5031619;28;19956;-59
2023/03/28 01:45:14;;;;;;;;;;;6.90;52.40;;;;;;5031768;28;20011;-60
2023/03/28 01:47:41;;;;;;;;;;;6.90;52.70;;;;;;5022677;28;20331;-60
2023/03/28 01:50:13;;;;;;;;;;;7.00;52.70;;;;;;5020682;28;19912;-60
2023/03/28 01:52:55;;;;;;;;;;;7.00;52.80;;;;;;5023998;28;19921;-60
2023/03/28 01:55:29;;;;;;;;;;;7.10;52.90;;;;;;5026732;28;19926;-60
2023/03/28 01:58:00;;;;;;;;;;;7.20;52.80;;;;;;5024209;28;19913;-60
2023/03/28 02:00:28;;;;;;;;;;;7.30;52.90;;;;;;5007955;28;19924;-59
2023/03/28 02:03:10;;;;;;;;;;;7.40;52.80;;;;;;5019288;28;19913;-59
2023/03/28 02:05:36;;;;;;;;;;;7.50;52.60;;;;;;5028983;28;19928;-59
2023/03/28 02:08:03;;;;;;;;;;;7.40;52.40;;;;;;5029601;28;19920;-60
2023/03/28 02:10:30;;;;;;;;;;;7.40;52.30;;;;;;5027949;28;19925;-59
2023/03/28 02:12:58;;;;;;;;;;;7.30;52.20;;;;;;5023709;28;19924;-59
2023/03/28 02:15:24;;;;;;;;;;;7.30;52.20;;;;;;5027488;28;20272;-58
2023/03/28 02:17:53;;;;;;;;;;;7.30;52.30;;;;;;5028563;28;19917;-59
2023/03/28 02:20:21;;;;;;;;;;;7.30;52.30;;;;;;5027219;28;20047;-59
2023/03/28 02:22:59;;;;;;;;;;;7.20;52.20;;;;;;5021652;28;19924;-59
2023/03/28 02:25:25;;;;;;;;;;;7.10;52.20;;;;;;5026926;28;19925;-59
2023/03/28 02:27:52;;;;;;;;;;;7.10;52.10;;;;;;5025844;28;19913;-59
2023/03/28 02:30:18;;;;;;;;;;;7.00;52.10;;;;;;5019108;28;19918;-59
2023/03/28 02:32:49;;;;;;;;;;;7.00;52.20;;;;;;5031191;28;20046;-58
2023/03/28 02:35:16;;;;;;;;;;;6.90;52.10;;;;;;5028775;28;19921;-59
2023/03/28 02:37:48;;;;;;;;;;;6.80;52.20;;;;;;5031291;28;20023;-59
2023/03/28 02:40:16;;;;;;;;;;;6.80;52.40;;;;;;5031511;28;19953;-59
2023/03/28 02:42:47;;;;;;;;;;;6.80;52.70;;;;;;5020595;28;20011;-59
2023/03/28 02:45:22;;;;;;;;;;;6.80;53.00;;;;;;5011527;28;19909;-58
2023/03/28 02:48:11;;;;;;;;;;;6.90;53.20;;;;;;5011159;28;19914;-59
2023/03/28 02:50:56;;;;;;;;;;;7.00;53.20;;;;;;5011744;28;20380;-59
2023/03/28 02:53:31;;;;;;;;;;;7.20;53.30;;;;;;5011250;28;19914;-59
2023/03/28 02:56:10;;;;;;;;;;;7.30;53.30;;;;;;5011339;28;19918;-58
2023/03/28 02:58:47;;;;;;;;;;;7.40;53.10;;;;;;5024901;28;19913;-58
2023/03/28 03:01:16;;;;;;;;;;;7.50;53.00;;;;;;5024924;28;19923;-58
2023/03/28 03:03:42;;;;;;;;;;;7.60;53.00;;;;;;5019426;28;20288;-58
2023/03/28 03:06:08;;;;;;;;;;;7.70;52.80;;;;;;5024338;28;19921;-58
2023/03/28 03:08:34;;;;;;;;;;;7.70;52.70;;;;;;5011885;28;19936;-58
2023/03/28 03:10:59;;;;;;;;;;;7.80;52.50;;;;;;5028522;28;20396;-58
2023/03/28 03:13:25;;;;;;;;;;;7.80;52.40;;;;;;5029223;28;19917;-57
2023/03/28 03:15:53;;;;;;;;;;;7.80;52.30;;;;;;5027194;28;19925;-58
2023/03/28 03:18:18;;;;;;;;;;;7.90;52.10;;;;;;5015747;28;20044;-57
2023/03/28 03:20:44;;;;;;;;;;;7.80;52.00;;;;;;5025049;28;20384;-57
2023/03/28 03:23:10;;;;;;;;;;;7.80;51.90;;;;;;5031256;28;19920;-57
2023/03/28 03:25:36;;;;;;;;;;;7.80;51.80;;;;;;5030584;28;20288;-57
2023/03/28 03:28:02;;;;;;;;;;;7.80;51.80;;;;;;5016549;28;20447;-57
2023/03/28 03:30:27;;;;;;;;;;;7.70;51.60;;;;;;5024911;28;19917;-57
2023/03/28 03:32:53;;;;;;;;;;;7.60;51.50;;;;;;5029326;28;19917;-58
2023/03/28 03:35:19;;;;;;;;;;;7.50;51.50;;;;;;5027279;28;19961;-57
2023/03/28 03:37:44;;;;;;;;;;;7.40;51.60;;;;;;5028465;28;19917;-58
2023/03/28 03:40:10;;;;;;;;;;;7.20;51.70;;;;;;5014096;28;19910;-57
2023/03/28 03:42:36;;;;;;;;;;;7.20;51.90;;;;;;5013886;28;19963;-58
2023/03/28 03:45:02;;;;;;;;;;;7.10;52.10;;;;;;5013806;28;19956;-58
2023/03/28 03:47:27;;;;;;;;;;;7.00;52.10;;;;;;5030980;28;19914;-57
2023/03/28 03:49:52;;;;;;;;;;;6.90;52.10;;;;;;5023395;28;20357;-58
2023/03/28 03:52:18;;;;;;;;;;;6.90;52.10;;;;;;5031307;28;19987;-58
2023/03/28 03:54:44;;;;;;;;;;;6.80;52.20;;;;;;5021874;28;20357;-57
2023/03/28 03:57:09;;;;;;;;;;;6.70;52.20;;;;;;5023957;28;19917;-58
2023/03/28 03:59:35;;;;;;;;;;;6.70;52.30;;;;;;5023586;28;19992;-57
2023/03/28 04:02:00;;;;;;;;;;;6.60;52.40;;;;;;5024052;28;20000;-58
2023/03/28 04:04:26;;;;;;;;;;;6.50;52.60;;;;;;5025195;28;19924;-57
2023/03/28 04:06:52;;;;;;;;;;;6.50;52.70;;;;;;5025682;28;19940;-58
2023/03/28 04:09:19;;;;;;;;;;;6.40;52.70;;;;;;5028624;28;19917;-58
2023/03/28 04:11:44;;;;;;;;;;;6.40;52.70;;;;;;5026592;28;19924;-59
2023/03/28 04:14:10;;;;;;;;;;;6.30;52.70;;;;;;5025521;28;19918;-59
2023/03/28 04:16:36;;;;;;;;;;;6.30;52.70;;;;;;5028012;28;19921;-59
2023/03/28 04:19:02;;;;;;;;;;;6.20;52.70;;;;;;5013519;28;19936;-59
2023/03/28 04:21:29;;;;;;;;;;;6.20;52.80;;;;;;5013728;28;19917;-59
2023/03/28 04:23:55;;;;;;;;;;;6.20;52.80;;;;;;5021958;28;20348;-59
2023/03/28 04:26:24;;;;;;;;;;;6.10;52.80;;;;;;5027860;28;19925;-59
2023/03/28 04:28:53;;;;;;;;;;;6.10;52.90;;;;;;5023523;28;19960;-59
2023/03/28 04:31:20;;;;;;;;;;;6.10;53.00;;;;;;5029002;28;20351;-58
2023/03/28 04:33:46;;;;;;;;;;;6.10;53.30;;;;;;5013114;28;19921;-59
2023/03/28 04:36:15;;;;;;;;;;;6.10;53.40;;;;;;5033065;28;19918;-59
2023/03/28 04:38:44;;;;;;;;;;;6.10;53.70;;;;;;5032897;28;19909;-59
2023/03/28 04:41:10;;;;;;;;;;;6.20;53.70;;;;;;5033168;28;19956;-59
2023/03/28 04:43:35;;;;;;;;;;;6.30;53.80;;;;;;5032990;28;19952;-59
2023/03/28 04:46:01;;;;;;;;;;;6.40;53.80;;;;;;5033067;28;20391;-59
2023/03/28 04:48:26;;;;;;;;;;;6.50;53.80;;;;;;5032645;28;20016;-59
2023/03/28 04:50:52;;;;;;;;;;;6.50;53.80;;;;;;5032874;28;19925;-59
2023/03/28 04:53:18;;;;;;;;;;;6.50;53.60;;;;;;5032491;28;19913;-59
2023/03/28 04:55:47;;;;;;;;;;;6.50;53.60;;;;;;5032518;28;19917;-59
2023/03/28 04:58:13;;;;;;;;;;;6.50;53.50;;;;;;5032287;28;19916;-59
2023/03/28 05:00:39;;;;;;;;;;;6.50;53.50;;;;;;5032656;28;20016;-59
2023/03/28 05:03:09;;;;;;;;;;;6.50;53.40;;;;;;5032555;28;20372;-59
2023/03/28 05:05:34;;;;;;;;;;;6.40;53.50;;;;;;5032674;28;19964;-59
2023/03/28 05:08:00;;;;;;;;;;;6.40;53.60;;;;;;5032208;28;20565;-59
2023/03/28 05:10:26;;;;;;;;;;;6.40;53.60;;;;;;5032210;28;20364;-59
2023/03/28 05:12:51;;;;;;;;;;;6.40;53.60;;;;;;5032044;28;19963;-59
2023/03/28 05:15:17;;;;;;;;;;;6.40;53.70;;;;;;5031978;28;19917;-59
2023/03/28 05:17:42;;;;;;;;;;;6.40;53.60;;;;;;5014461;28;19916;-59
2023/03/28 05:20:09;;;;;;;;;;;6.30;53.50;;;;;;5032067;28;20343;-59
2023/03/28 05:22:35;;;;;;;;;;;6.30;53.40;;;;;;5032151;28;19944;-59
2023/03/28 05:25:01;;;;;;;;;;;6.20;53.30;;;;;;5031862;28;19916;-59
2023/03/28 05:27:27;;;;;;;;;;;6.20;53.20;;;;;;5031211;28;19952;-59
2023/03/28 05:29:52;;;;;;;;;;;6.10;53.30;;;;;;5031913;28;19909;-59
2023/03/28 05:32:18;;;;;;;;;;;6.10;53.50;;;;;;5031562;28;19925;-59
2023/03/28 05:34:43;;;;;;;;;;;6.00;53.60;;;;;;5031681;28;20376;-59
2023/03/28 05:37:08;;;;;;;;;;;6.00;53.60;;;;;;5032185;28;20365;-58
2023/03/28 05:39:34;;;;;;;;;;;6.00;53.70;;;;;;5031639;28;19916;-59
2023/03/28 05:42:00;;;;;;;;;;;5.90;53.80;;;;;;5031455;28;20391;-59
2023/03/28 05:44:25;;;;;;;;;;;5.90;54.00;;;;;;5031476;28;20344;-58
2023/03/28 05:46:51;;;;;;;;;;;5.90;54.10;;;;;;5031995;28;19921;-59
2023/03/28 05:49:16;;;;;;;;;;;5.90;54.30;;;;;;5013922;28;19920;-59
2023/03/28 05:51:41;;;;;;;;;;;5.90;54.50;;;;;;5031337;28;19925;-59
2023/03/28 05:54:07;;;;;;;;;;;6.00;54.80;;;;;;5031434;28;19913;-59
2023/03/28 05:56:34;;;;;;;;;;;6.10;55.00;;;;;;5031706;28;19924;-59
2023/03/28 05:59:00;;;;;;;;;;;6.20;55.00;;;;;;5031303;28;20416;-59
2023/03/28 06:01:26;;;;;;;;;;;6.30;55.50;;;;;;5031685;28;20320;-59
2023/03/28 06:03:52;;;;;;;;;;;6.50;55.70;;;;;;5031552;28;19909;-59
2023/03/28 06:06:19;;;;;;;;;;;6.60;55.70;;;;;;5031693;28;19917;-59
2023/03/28 06:08:44;;;;;;;;;;;6.70;55.50;;;;;;5031102;28;19913;-59
2023/03/28 06:11:10;;;;;;;;;;;6.80;55.10;;;;;;5031568;28;19924;-58
2023/03/28 06:13:35;;;;;;;;;;;6.80;54.90;;;;;;5031374;28;19924;-59
2023/03/28 06:16:01;;;;;;;;;;;6.80;54.80;;;;;;5031515;28;19924;-58
2023/03/28 06:18:27;;;;;;;;;;;6.90;54.70;;;;;;5031385;28;19935;-59
2023/03/28 06:20:53;;;;;;;;;;;6.90;54.60;;;;;;5031688;28;19917;-58
2023/03/28 06:23:19;;;;;;;;;;;6.90;54.50;;;;;;5031513;28;20283;-58
2023/03/28 06:25:44;;;;;;;;;;;6.90;54.70;;;;;;5031541;28;19917;-59
2023/03/28 06:28:10;;;;;;;;;;;7.00;54.90;;;;;;5031328;28;19917;-59
2023/03/28 06:30:37;;;;;;;;;;;7.00;55.00;;;;;;5031251;28;20289;-59
2023/03/28 06:33:03;;;;;;;;;;;7.10;55.00;;;;;;5031457;28;19928;-59
2023/03/28 06:35:28;;;;;;;;;;;7.40;56.40;;;;;;5031253;28;19917;-59
2023/03/28 06:37:53;;;;;;;;;;;7.70;56.80;;;;;;5031437;28;20261;-59
2023/03/28 06:40:19;;;;;;;;;;;8.20;58.90;;;;;;5035317;28;19943;-59
2023/03/28 06:42:44;;;;;;;;;;;8.70;58.70;;;;;;5035588;28;19952;-59
2023/03/28 06:45:10;;;;;;;;;;;9.30;58.80;;;;;;5035130;28;20388;-59
2023/03/28 06:47:35;;;;;;;;;;;9.90;59.90;;;;;;5035385;28;20372;-59
2023/03/28 06:50:01;;;;;;;;;;;10.60;59.90;;;;;;5035309;28;20391;-57
2023/03/28 06:52:26;;;;;;;;;;;11.40;59.60;;;;;;5035574;28;19913;-57
2023/03/28 06:54:52;;;;;;;;;;;12.30;59.20;;;;;;5034958;28;20252;-57
2023/03/28 06:57:17;;;;;;;;;;;13.00;58.50;;;;;;5035321;28;20372;-57
2023/03/28 06:59:43;;;;;;;;;;;13.80;57.50;;;;;;5034957;28;19913;-57
2023/03/28 07:02:09;;;;;;;;;;;14.50;56.00;;;;;;5034209;28;19921;-57
2023/03/28 07:04:35;;;;;;;;;;;15.20;54.60;;;;;;5034952;28;19909;-57
2023/03/28 07:07:00;;;;;;;;;;;15.80;53.20;;;;;;5027935;28;20265;-57
2023/03/28 07:09:26;;;;;;;;;;;16.50;52.50;;;;;;5014789;28;19953;-57
2023/03/28 07:11:51;;;;;;;;;;;17.10;51.40;;;;;;5019153;28;19918;-57
2023/03/28 07:14:17;;;;;;;;;;;17.70;50.90;;;;;;5014825;28;20431;-58
2023/03/28 07:16:43;;;;;;;;;;;18.30;49.30;;;;;;5028633;28;19971;-58
2023/03/28 07:19:08;;;;;;;;;;;18.80;48.20;;;;;;5034866;28;20016;-57
2023/03/28 07:21:34;;;;;;;;;;;19.30;47.70;;;;;;5034196;28;19978;-58
2023/03/28 07:23:59;;;;;;;;;;;19.80;46.00;;;;;;5034438;28;19987;-58
2023/03/28 07:26:26;;;;;;;;;;;20.30;45.10;;;;;;5022753;28;19940;-58
2023/03/28 07:28:55;;;;;;;;;;;20.80;44.70;;;;;;5014652;28;19910;-58
2023/03/28 07:31:20;;;;;;;;;;;21.30;44.10;;;;;;5014278;28;19935;-58
2023/03/28 07:33:48;;;;;;;;;;;21.80;41.50;;;;;;5014516;28;19913;-59
2023/03/28 07:36:14;;;;;;;;;;;22.30;39.90;;;;;;5031530;28;19923;-59
2023/03/28 07:38:40;;;;;;;;;;;22.60;39.20;;;;;;5033640;28;19920;-59
2023/03/28 07:41:06;;;;;;;;;;;23.00;37.80;;;;;;5034487;28;20012;-59
2023/03/28 07:43:32;;;;;;;;;;;23.30;37.50;;;;;;5033166;28;19924;-59
2023/03/28 07:45:58;;;;;;;;;;;23.70;37.00;;;;;;5034209;28;20352;-60
2023/03/28 07:48:24;;;;;;;;;;;24.10;35.80;;;;;;5032283;28;20427;-59
2023/03/28 07:50:49;;;;;;;;;;;24.50;35.60;;;;;;5033501;28;20012;-59
2023/03/28 07:53:15;;;;;;;;;;;24.80;35.10;;;;;;5033545;28;19917;-60
2023/03/28 07:55:42;;;;;;;;;;;25.20;33.90;;;;;;5034229;28;19917;-59
2023/03/28 07:58:08;;;;;;;;;;;25.50;33.10;;;;;;5033004;28;19956;-58
2023/03/28 08:00:33;;;;;;;;;;;25.80;32.50;;;;;;5034057;28;19967;-58
2023/03/28 08:02:59;;;;;;;;;;;26.00;31.20;;;;;;5033185;28;20047;-59
2023/03/28 08:05:25;;;;;;;;;;;26.20;30.70;;;;;;5034039;28;19917;-59
2023/03/28 08:07:51;;;;;;;;;;;26.30;29.30;;;;;;5031464;28;20380;-59
2023/03/28 08:10:16;;;;;;;;;;;26.20;29.00;;;;;;5016423;28;20032;-60
2023/03/28 08:12:42;;;;;;;;;;;26.10;28.50;;;;;;5013812;28;19917;-59
2023/03/28 08:15:07;;;;;;;;;;;26.20;29.40;;;;;;5013881;28;19909;-59
2023/03/28 08:17:33;;;;;;;;;;;26.30;28.60;;;;;;5024819;28;19940;-58
2023/03/28 08:19:58;;;;;;;;;;;26.40;28.00;;;;;;5013656;28;19917;-59
2023/03/28 08:22:25;;;;;;;;;;;26.60;28.20;;;;;;5015780;28;20257;-59
2023/03/28 08:24:50;;;;;;;;;;;26.80;27.40;;;;;;5007562;28;19949;-59
2023/03/28 08:27:16;;;;;;;;;;;26.90;27.60;;;;;;5029527;28;19959;-62
2023/03/28 08:29:41;;;;;;;;;;;27.20;27.10;;;;;;5017128;28;20455;-58
2023/03/28 08:32:07;;;;;;;;;;;27.30;26.50;;;;;;5003823;28;19921;-60
2023/03/28 08:34:32;;;;;;;;;;;27.40;26.30;;;;;;5032879;28;19913;-59
2023/03/28 08:36:58;;;;;;;;;;;27.50;25.50;;;;;;5033451;28;19921;-57
2023/03/28 08:39:24;;;;;;;;;;;27.50;24.90;;;;;;5032381;28;19916;-58
2023/03/28 08:42:08;;;;;;;;;;;27.70;25.50;;;;;;5033717;28;20008;-58
2023/03/28 08:44:34;;;;;;;;;;;27.80;25.80;;;;;;5022642;28;19910;-60
2023/03/28 08:47:17;;;;;;;;;;;28.00;25.50;;;;;;5013548;28;20020;-61
2023/03/28 08:49:44;;;;;;;;;;;28.20;25.30;;;;;;5013172;28;19913;-59
2023/03/28 08:52:11;;;;;;;;;;;28.20;24.30;;;;;;5013180;28;19917;-59
2023/03/28 08:55:12;;;;;;;;;;;28.30;24.30;;;;;;5029067;28;20037;-58
2023/03/28 08:57:39;;;;;;;;;;;28.30;23.90;;;;;;4954443;28;19918;-59
2023/03/28 09:00:16;;;;;;;;;;;28.30;23.80;;;;;;5001138;28;20290;-59
2023/03/28 09:02:42;;;;;;;;;;;28.40;24.10;;;;;;5017758;28;20426;-59
2023/03/28 09:05:15;;;;;;;;;;;28.60;24.10;;;;;;5032677;28;19917;-59
2023/03/28 09:07:45;;;;;;;;;;;28.70;23.50;;;;;;5032605;28;19909;-59
2023/03/28 09:10:27;;;;;;;;;;;28.90;23.40;;;;;;5032706;28;19909;-58
2023/03/28 09:13:11;;;;;;;;;;;29.00;23.30;;;;;;5032552;28;19914;-60
2023/03/28 09:15:44;;;;;;;;;;;29.10;23.00;;;;;;5015542;28;19921;-59
2023/03/28 09:18:12;;;;;;;;;;;29.00;22.70;;;;;;5018062;28;19913;-58
2023/03/28 09:20:43;;;;;;;;;;;28.60;22.00;;;;;;5031831;28;19917;-58
2023/03/28 09:23:20;;;;;;;;;;;28.10;22.30;;;;;;5032727;28;20423;-59
2023/03/28 09:26:08;;;;;;;;;;;27.60;22.60;;;;;;5031100;28;19928;-60
2023/03/28 09:28:47;;;;;;;;;;;27.20;22.80;;;;;;5032226;28;19975;-57
2023/03/28 09:31:14;;;;;;;;;;;26.50;22.80;;;;;;5030026;28;19928;-59
2023/03/28 09:33:42;;;;;;;;;;;26.10;23.00;;;;;;5031985;28;19913;-59
2023/03/28 09:36:26;;;;;;;;;;;25.80;23.10;;;;;;5030713;28;19917;-59
2023/03/28 09:38:57;;;;;;;;;;;25.30;23.50;;;;;;5030140;28;19935;-58
2023/03/28 09:41:42;;;;;;;;;;;24.80;23.60;;;;;;5021596;28;19924;-59
2023/03/28 09:44:12;;;;;;;;;;;24.30;23.60;;;;;;5012382;28;19917;-60
2023/03/28 09:46:38;;;;;;;;;;;24.10;23.70;;;;;;5032113;28;19925;-59
2023/03/28 09:49:03;;;;;;;;;;;23.90;24.20;;;;;;5031941;28;20304;-60
2023/03/28 09:51:29;;;;;;;;;;;24.10;24.50;;;;;;5014241;28;19918;-59
2023/03/28 09:53:54;;;;;;;;;;;24.30;23.90;;;;;;5018126;28;19917;-60
2023/03/28 09:56:24;;;;;;;;;;;24.40;23.60;;;;;;5031497;28;20011;-61
2023/03/28 09:58:52;;;;;;;;;;;24.30;23.20;;;;;;5030055;28;20288;-59
2023/03/28 10:01:28;;;;;;;;;;;24.20;23.40;;;;;;5018661;28;20015;-59
2023/03/28 10:03:55;;;;;;;;;;;24.40;24.10;;;;;;5029938;28;19913;-59
2023/03/28 10:06:26;;;;;;;;;;;24.90;23.90;;;;;;5031467;28;20291;-59
2023/03/28 10:08:52;;;;;;;;;;;25.50;23.60;;;;;;5029311;28;19917;-59
2023/03/28 10:11:18;;;;;;;;;;;26.10;23.00;;;;;;5031800;28;19918;-59
2023/03/28 10:13:47;;;;;;;;;;;26.60;22.40;;;;;;5029699;28;19917;-58
2023/03/28 10:16:14;;;;;;;;;;;27.00;22.40;;;;;;5031429;28;20005;-58
2023/03/28 10:18:41;;;;;;;;;;;27.00;22.00;;;;;;5030515;28;20352;-59
2023/03/28 10:21:09;;;;;;;;;;;26.70;21.10;;;;;;5031632;28;19918;-59
2023/03/28 10:23:35;;;;;;;;;;;26.20;21.50;;;;;;5011808;28;19920;-59
2023/03/28 10:26:01;;;;;;;;;;;25.80;21.80;;;;;;5031548;28;19917;-59
2023/03/28 10:28:34;;;;;;;;;;;25.70;22.00;;;;;;5028394;28;19917;-59
2023/03/28 10:31:00;;;;;;;;;;;25.40;22.30;;;;;;5011819;28;20281;-59
2023/03/28 10:33:45;;;;;;;;;;;25.10;22.60;;;;;;5029328;28;20229;-60
2023/03/28 10:36:22;;;;;;;;;;;24.80;22.90;;;;;;5030081;28;20393;-58
2023/03/28 10:38:48;;;;;;;;;;;24.50;23.00;;;;;;5031332;28;20356;-58
2023/03/28 10:41:26;;;;;;;;;;;24.20;23.10;;;;;;5029885;28;19917;-58
2023/03/28 10:43:52;;;;;;;;;;;23.80;23.20;;;;;;5030606;28;20395;-59
2023/03/28 10:46:23;;;;;;;;;;;23.50;23.40;;;;;;5030316;28;19949;-58
2023/03/28 10:49:05;;;;;;;;;;;23.20;23.60;;;;;;5030870;28;20012;-58
2023/03/28 10:51:31;;;;;;;;;;;22.90;23.80;;;;;;5011726;28;19917;-58
2023/03/28 10:54:02;;;;;;;;;;;22.50;24.10;;;;;;5011545;28;19960;-58
2023/03/28 10:56:28;;;;;;;;;;;22.10;24.10;;;;;;5011646;28;20364;-58
2023/03/28 10:59:07;;;;;;;;;;;21.70;24.40;;;;;;5027203;28;19967;-58
2023/03/28 11:01:51;;;;;;;;;;;21.30;24.80;;;;;;4993795;28;19922;-58
2023/03/28 11:04:32;;;;;;;;;;;21.10;25.00;;;;;;5011604;28;20380;-59
2023/03/28 11:07:04;;;;;;;;;;;20.80;25.10;;;;;;5030608;28;19981;-60
2023/03/28 11:09:36;;;;;;;;;;;20.70;25.40;;;;;;5026812;28;19959;-58
2023/03/28 11:12:07;;;;;;;;;;;20.60;25.30;;;;;;5031062;28;19924;-58
2023/03/28 11:14:50;;;;;;;;;;;20.60;25.50;;;;;;5028403;28;20014;-59
2023/03/28 11:17:25;;;;;;;;;;;20.60;25.60;;;;;;5010944;28;19921;-59
2023/03/28 11:20:05;;;;;;;;;;;20.70;25.50;;;;;;5022204;28;19913;-59
2023/03/28 11:22:42;;;;;;;;;;;20.70;25.30;;;;;;5031026;28;19924;-59
2023/03/28 11:25:26;;;;;;;;;;;20.80;25.40;;;;;;5024684;28;19914;-58
2023/03/28 11:28:07;;;;;;;;;;;21.20;25.60;;;;;;5031271;28;19917;-58
2023/03/28 11:30:33;;;;;;;;;;;21.80;25.20;;;;;;5028967;28;19917;-60
2023/03/28 11:33:09;;;;;;;;;;;22.20;24.60;;;;;;5024100;28;19917;-59
2023/03/28 11:35:38;;;;;;;;;;;22.30;24.60;;;;;;5031994;28;19917;-59
2023/03/28 11:38:21;;;;;;;;;;;22.20;24.60;;;;;;5020862;28;19936;-58
2023/03/28 11:40:51;;;;;;;;;;;22.20;24.80;;;;;;5018463;28;19917;-59
2023/03/28 11:43:36;;;;;;;;;;;22.20;24.80;;;;;;5033339;28;19909;-59
2023/03/28 11:46:06;;;;;;;;;;;22.20;24.70;;;;;;5034351;28;19956;-58
2023/03/28 11:48:42;;;;;;;;;;;22.20;24.50;;;;;;5031125;28;19917;-58
2023/03/28 11:51:10;;;;;;;;;;;22.30;24.60;;;;;;5033115;28;19999;-60
2023/03/28 11:53:56;;;;;;;;;;;22.40;24.40;;;;;;5031446;28;19917;-58
2023/03/28 11:56:34;;;;;;;;;;;22.50;24.40;;;;;;5014153;28;19917;-60
2023/03/28 11:59:02;;;;;;;;;;;22.40;24.20;;;;;;5025918;28;20028;-63
2023/03/28 12:01:28;;;;;;;;;;;22.50;23.90;;;;;;5013734;28;19925;-59
2023/03/28 12:04:04;;;;;;;;;;;22.50;23.70;;;;;;5021266;28;20004;-58
2023/03/28 12:06:36;;;;;;;;;;;22.30;23.70;;;;;;5034072;28;19921;-59
2023/03/28 12:09:01;;;;;;;;;;;22.20;23.70;;;;;;5033058;28;19944;-60
2023/03/28 12:11:36;;;;;;;;;;;22.20;23.80;;;;;;5033908;28;19956;-59
2023/03/28 12:14:08;;;;;;;;;;;22.00;22.80;;;;;;5032367;28;19917;-58
2023/03/28 12:16:38;;;;;;;;;;;21.80;23.00;;;;;;5033936;28;20375;-59
2023/03/28 12:19:05;;;;;;;;;;;22.00;23.50;;;;;;5032545;28;20257;-60
2023/03/28 12:21:42;;;;;;;;;;;22.50;23.50;;;;;;5033066;28;19917;-60
2023/03/28 12:24:17;;;;;;;;;;;22.90;22.80;;;;;;5032474;28;19913;-60
2023/03/28 12:26:50;;;;;;;;;;;22.90;22.30;;;;;;5033781;28;19917;-60
2023/03/28 12:29:18;;;;;;;;;;;22.80;22.10;;;;;;5014025;28;19917;-59
2023/03/28 12:31:47;;;;;;;;;;;22.60;22.10;;;;;;5033464;28;19975;-60
2023/03/28 12:34:24;;;;;;;;;;;22.30;22.50;;;;;;5031999;28;20353;-60
2023/03/28 12:36:58;;;;;;;;;;;22.30;23.00;;;;;;5016098;28;19917;-61
2023/03/28 12:39:35;;;;;;;;;;;22.60;23.10;;;;;;5028489;28;19913;-61
2023/03/28 12:42:02;;;;;;;;;;;22.80;22.70;;;;;;5026291;28;19921;-59
2023/03/28 12:44:31;;;;;;;;;;;23.00;22.70;;;;;;5022173;28;19910;-60
2023/03/28 12:46:59;;;;;;;;;;;23.00;23.00;;;;;;5013952;28;19967;-60
2023/03/28 12:49:27;;;;;;;;;;;23.30;23.10;;;;;;5017724;28;19913;-60
2023/03/28 12:51:55;;;;;;;;;;;23.50;22.80;;;;;;5030976;28;20003;-60
2023/03/28 12:54:26;;;;;;;;;;;23.60;22.70;;;;;;5028639;28;20398;-63
2023/03/28 12:56:59;;;;;;;;;;;23.50;22.40;;;;;;5013498;28;19925;-61
2023/03/28 12:59:41;;;;;;;;;;;23.50;22.30;;;;;;5013272;28;19909;-60
2023/03/28 13:02:12;;;;;;;;;;;23.50;22.30;;;;;;5013703;28;19917;-60
2023/03/28 13:04:53;;;;;;;;;;;23.50;21.50;;;;;;5013013;28;20280;-59
2023/03/28 13:07:26;;;;;;;;;;;23.10;21.80;;;;;;5020600;28;19963;-60
2023/03/28 13:10:05;;;;;;;;;;;22.80;22.20;;;;;;5027658;28;19944;-64
2023/03/28 13:12:30;;;;;;;;;;;22.50;22.20;;;;;;5013123;28;20041;-60
2023/03/28 13:14:59;;;;;;;;;;;22.30;22.50;;;;;;5020892;28;19996;-60
2023/03/28 13:17:26;;;;;;;;;;;22.10;22.80;;;;;;5032553;28;20004;-60
2023/03/28 13:19:54;;;;;;;;;;;22.30;23.20;;;;;;5032521;28;19909;-63
2023/03/28 13:22:30;;;;;;;;;;;22.50;22.90;;;;;;5032616;28;19994;-60
2023/03/28 13:25:14;;;;;;;;;;;22.60;22.90;;;;;;5030889;28;20474;-59
2023/03/28 13:27:40;;;;;;;;;;;22.50;23.20;;;;;;5022169;28;19909;-60
2023/03/28 13:30:16;;;;;;;;;;;22.30;22.80;;;;;;5014833;28;19925;-60
2023/03/28 13:32:47;;;;;;;;;;;22.00;22.40;;;;;;5031966;28;19916;-61
2023/03/28 13:35:32;;;;;;;;;;;21.60;22.00;;;;;;5022803;28;19959;-61
2023/03/28 13:38:17;;;;;;;;;;;21.20;22.10;;;;;;5027991;28;19921;-60
2023/03/28 13:40:44;;;;;;;;;;;21.00;22.80;;;;;;5025055;28;19921;-60
2023/03/28 13:43:28;;;;;;;;;;;20.80;23.20;;;;;;5028003;28;19952;-59
2023/03/28 13:45:56;;;;;;;;;;;20.80;23.50;;;;;;5017381;28;19940;-61
2023/03/28 13:48:28;;;;;;;;;;;20.80;23.90;;;;;;5026579;28;20261;-59
2023/03/28 13:50:55;;;;;;;;;;;20.80;23.60;;;;;;5025213;28;19921;-62
2023/03/28 13:53:20;;;;;;;;;;;20.40;23.40;;;;;;5018362;28;19917;-59
2023/03/28 13:55:46;;;;;;;;;;;20.30;23.80;;;;;;5012365;28;19979;-59
2023/03/28 13:58:12;;;;;;;;;;;20.10;24.00;;;;;;5026080;28;19917;-59
2023/03/28 14:00:38;;;;;;;;;;;19.90;24.10;;;;;;5031875;28;20064;-59
2023/03/28 14:03:04;;;;;;;;;;;19.70;23.90;;;;;;5029807;28;19913;-60
2023/03/28 14:05:31;;;;;;;;;;;19.60;24.00;;;;;;5030678;28;19927;-59
2023/03/28 14:08:19;;;;;;;;;;;19.40;24.10;;;;;;5028836;28;19913;-59
2023/03/28 14:10:45;;;;;;;;;;;19.30;24.30;;;;;;5028631;28;20004;-60
2023/03/28 14:13:13;;;;;;;;;;;19.10;24.10;;;;;;5016438;28;20412;-60
2023/03/28 14:15:39;;;;;;;;;;;19.00;24.40;;;;;;5012159;28;20004;-60
2023/03/28 14:18:09;;;;;;;;;;;18.80;24.20;;;;;;5015848;28;19945;-60
2023/03/28 14:20:35;;;;;;;;;;;18.60;24.50;;;;;;5012169;28;20333;-59
2023/03/28 14:23:01;;;;;;;;;;;18.50;24.80;;;;;;5028413;28;19968;-60
2023/03/28 14:25:26;;;;;;;;;;;18.50;25.00;;;;;;5031506;28;19917;-59
2023/03/28 14:27:53;;;;;;;;;;;18.50;25.00;;;;;;5030158;28;19928;-60
2023/03/28 14:30:29;;;;;;;;;;;18.50;24.90;;;;;;5031754;28;20257;-60
2023/03/28 14:32:58;;;;;;;;;;;18.30;24.80;;;;;;5019515;28;19940;-59
2023/03/28 14:35:28;;;;;;;;;;;18.30;25.10;;;;;;5031437;28;20363;-61